sensor_id;sensor_type;location;lat;lon;timestamp;pressure;altitude;pressure_sealevel;temperature;humidity
72558;BME280;60583;50.094;8.748;2023-05-10T00:02:24;99706.97;;;14.50;100.00
72558;BME280;60583;50.094;8.748;2023-05-10T00:04:50;99717.00;;;14.54;100.00
72558;BME280;60583;50.094;8.748;2023-05-10T00:07:15;99713.31;;;14.44;100.00
72558;BME280;60583;50.094;8.748;2023-05-10T00:09:42;99715.41;;;14.42;100.00
72558;BME280;60583;50.094;8.748;2023-05-10T00:12:08;99721.91;;;14.46;100.00
72558;BME280;60583;50.094;8.748;2023-05-10T00:14:34;99726.16;;;14.42;100.00
72558;BME280;60583;50.094;8.748;2023-05-10T00:16:59;99725.47;;;14.35;100.00
72558;BME280;60583;50.094;8.748;2023-05-10T00:19:25;99722.19;;;14.33;100.00
72558;BME280;60583;50.094;8.748;2023-05-10T00:21:50;99729.53;;;14.26;100.00
72558;BME280;60583;50.094;8.748;2023-05-10T00:24:16;99737.50;;;14.32;100.00
72558;BME280;60583;50.094;8.748;2023-05-10T00:26:41;99732.47;;;14.24;100.00
72558;BME280;60583;50.094;8.748;2023-05-10T00:29:07;99735.72;;;14.26;100.00
72558;BME280;60583;50.094;8.748;2023-05-10T00:31:32;99738.78;;;14.18;100.00
72558;BME280;60583;50.094;8.748;2023-05-10T00:33:58;99727.13;;;14.13;100.00
72558;BME280;60583;50.094;8.748;2023-05-10T00:36:23;99739.13;;;14.22;100.00
72558;BME280;60583;50.094;8.748;2023-05-10T00:38:49;99734.38;;;14.12;100.00
72558;BME280;60583;50.094;8.748;2023-05-10T00:41:14;99741.03;;;14.10;100.00
72558;BME280;60583;50.094;8.748;2023-05-10T00:43:40;99730.22;;;14.04;100.00
72558;BME280;60583;50.094;8.748;2023-05-10T00:46:07;99733.94;;;14.03;100.00
72558;BME280;60583;50.094;8.748;2023-05-10T00:48:33;99721.03;;;13.89;100.00
72558;BME280;60583;50.094;8.748;2023-05-10T00:50:58;99721.84;;;13.89;100.00
72558;BME280;60583;50.094;8.748;2023-05-10T00:53:24;99735.47;;;13.88;100.00
72558;BME280;60583;50.094;8.748;2023-05-10T00:55:50;99748.03;;;13.99;100.00
72558;BME280;60583;50.094;8.748;2023-05-10T00:58:16;99728.59;;;13.80;100.00
72558;BME280;60583;50.094;8.748;2023-05-10T01:00:42;99736.28;;;13.88;100.00
72558;BME280;60583;50.094;8.748;2023-05-10T01:03:10;99748.66;;;13.89;100.00
72558;BME280;60583;50.094;8.748;2023-05-10T01:05:37;99713.63;;;13.56;100.00
72558;BME280;60583;50.094;8.748;2023-05-10T01:08:02;99744.34;;;13.77;100.00
72558;BME280;60583;50.094;8.748;2023-05-10T01:10:28;99758.78;;;13.76;100.00
72558;BME280;60583;50.094;8.748;2023-05-10T01:12:54;99756.47;;;13.68;100.00
72558;BME280;60583;50.094;8.748;2023-05-10T01:15:20;99766.47;;;13.72;100.00
72558;BME280;60583;50.094;8.748;2023-05-10T01:17:46;99753.22;;;13.66;100.00
72558;BME280;60583;50.094;8.748;2023-05-10T01:20:15;99760.22;;;13.67;100.00
72558;BME280;60583;50.094;8.748;2023-05-10T01:22:53;99754.94;;;13.60;100.00
72558;BME280;60583;50.094;8.748;2023-05-10T01:28:54;99749.72;;;13.54;100.00
72558;BME280;60583;50.094;8.748;2023-05-10T01:31:34;99769.41;;;13.59;100.00
72558;BME280;60583;50.094;8.748;2023-05-10T01:34:16;99755.91;;;13.54;100.00
72558;BME280;60583;50.094;8.748;2023-05-10T01:36:45;99768.69;;;13.52;100.00
72558;BME280;60583;50.094;8.748;2023-05-10T01:39:15;99773.72;;;13.49;100.00
72558;BME280;60583;50.094;8.748;2023-05-10T01:47:36;99782.91;;;13.41;100.00
72558;BME280;60583;50.094;8.748;2023-05-10T01:50:04;99783.94;;;13.28;100.00
72558;BME280;60583;50.094;8.748;2023-05-10T01:52:34;99785.00;;;13.39;100.00
72558;BME280;60583;50.094;8.748;2023-05-10T01:55:05;99776.50;;;13.30;100.00
72558;BME280;60583;50.094;8.748;2023-05-10T01:57:35;99781.72;;;13.37;100.00
72558;BME280;60583;50.094;8.748;2023-05-10T02:00:05;99784.88;;;13.46;100.00
72558;BME280;60583;50.094;8.748;2023-05-10T02:02:36;99789.53;;;13.50;100.00
72558;BME280;60583;50.094;8.748;2023-05-10T02:05:03;99786.75;;;13.33;100.00
72558;BME280;60583;50.094;8.748;2023-05-10T02:07:31;99789.88;;;13.19;100.00
72558;BME280;60583;50.094;8.748;2023-05-10T02:09:59;99793.25;;;13.26;100.00
72558;BME280;60583;50.094;8.748;2023-05-10T02:12:26;99801.75;;;13.34;100.00
72558;BME280;60583;50.094;8.748;2023-05-10T02:14:53;99795.94;;;13.26;100.00
72558;BME280;60583;50.094;8.748;2023-05-10T02:17:19;99762.91;;;13.02;100.00
72558;BME280;60583;50.094;8.748;2023-05-10T02:19:46;99798.81;;;13.24;100.00
72558;BME280;60583;50.094;8.748;2023-05-10T02:22:13;99800.84;;;13.29;100.00
72558;BME280;60583;50.094;8.748;2023-05-10T02:24:39;99793.72;;;13.23;100.00
72558;BME280;60583;50.094;8.748;2023-05-10T02:27:07;99811.28;;;13.19;100.00
72558;BME280;60583;50.094;8.748;2023-05-10T02:29:35;99810.88;;;13.04;100.00
72558;BME280;60583;50.094;8.748;2023-05-10T02:32:02;99804.91;;;13.02;100.00
72558;BME280;60583;50.094;8.748;2023-05-10T02:34:28;99813.00;;;13.13;100.00
72558;BME280;60583;50.094;8.748;2023-05-10T02:36:54;99810.25;;;13.02;100.00
72558;BME280;60583;50.094;8.748;2023-05-10T02:39:22;99814.28;;;13.11;100.00
72558;BME280;60583;50.094;8.748;2023-05-10T02:41:51;99803.22;;;13.07;100.00
72558;BME280;60583;50.094;8.748;2023-05-10T02:44:18;99821.25;;;13.12;100.00
72558;BME280;60583;50.094;8.748;2023-05-10T02:46:45;99817.91;;;13.16;100.00
72558;BME280;60583;50.094;8.748;2023-05-10T02:49:10;99811.88;;;13.21;100.00
72558;BME280;60583;50.094;8.748;2023-05-10T02:51:40;99822.78;;;13.19;100.00
72558;BME280;60583;50.094;8.748;2023-05-10T02:54:11;99806.09;;;13.06;100.00
72558;BME280;60583;50.094;8.748;2023-05-10T02:56:43;99804.63;;;13.10;100.00
72558;BME280;60583;50.094;8.748;2023-05-10T02:59:12;99820.47;;;13.23;100.00
72558;BME280;60583;50.094;8.748;2023-05-10T03:01:37;99815.44;;;13.15;100.00
72558;BME280;60583;50.094;8.748;2023-05-10T03:04:03;99811.03;;;13.09;100.00
72558;BME280;60583;50.094;8.748;2023-05-10T03:06:28;99813.00;;;13.13;100.00
72558;BME280;60583;50.094;8.748;2023-05-10T03:08:54;99825.34;;;13.14;100.00
72558;BME280;60583;50.094;8.748;2023-05-10T03:14:26;99820.69;;;13.10;100.00
72558;BME280;60583;50.094;8.748;2023-05-10T03:17:04;99807.38;;;13.03;100.00
72558;BME280;60583;50.094;8.748;2023-05-10T03:19:42;99795.44;;;12.88;100.00
72558;BME280;60583;50.094;8.748;2023-05-10T03:22:10;99828.41;;;13.00;100.00
72558;BME280;60583;50.094;8.748;2023-05-10T03:24:39;99827.72;;;13.04;100.00
72558;BME280;60583;50.094;8.748;2023-05-10T03:27:07;99827.50;;;13.06;100.00
72558;BME280;60583;50.094;8.748;2023-05-10T03:29:33;99816.66;;;13.01;100.00
72558;BME280;60583;50.094;8.748;2023-05-10T03:31:59;99833.31;;;13.03;100.00
72558;BME280;60583;50.094;8.748;2023-05-10T03:34:25;99822.16;;;13.06;100.00
72558;BME280;60583;50.094;8.748;2023-05-10T03:36:51;99838.91;;;13.01;100.00
72558;BME280;60583;50.094;8.748;2023-05-10T03:39:16;99825.16;;;12.98;100.00
72558;BME280;60583;50.094;8.748;2023-05-10T03:41:42;99846.63;;;13.09;100.00
72558;BME280;60583;50.094;8.748;2023-05-10T03:44:07;99847.72;;;13.02;100.00
72558;BME280;60583;50.094;8.748;2023-05-10T03:46:32;99855.13;;;13.06;100.00
72558;BME280;60583;50.094;8.748;2023-05-10T03:48:58;99856.00;;;13.00;100.00
72558;BME280;60583;50.094;8.748;2023-05-10T03:51:23;99861.66;;;12.92;100.00
72558;BME280;60583;50.094;8.748;2023-05-10T03:53:53;99859.81;;;12.93;100.00
72558;BME280;60583;50.094;8.748;2023-05-10T03:56:18;99860.19;;;12.96;100.00
72558;BME280;60583;50.094;8.748;2023-05-10T03:58:43;99863.78;;;13.02;100.00
72558;BME280;60583;50.094;8.748;2023-05-10T04:01:09;99869.75;;;13.04;100.00
72558;BME280;60583;50.094;8.748;2023-05-10T04:03:35;99866.69;;;13.00;100.00
72558;BME280;60583;50.094;8.748;2023-05-10T04:06:02;99862.75;;;13.03;100.00
72558;BME280;60583;50.094;8.748;2023-05-10T04:08:27;99861.53;;;13.17;100.00
72558;BME280;60583;50.094;8.748;2023-05-10T04:10:53;99849.69;;;13.13;100.00
72558;BME280;60583;50.094;8.748;2023-05-10T04:13:19;99851.91;;;13.16;100.00
72558;BME280;60583;50.094;8.748;2023-05-10T04:15:44;99843.16;;;13.09;100.00
72558;BME280;60583;50.094;8.748;2023-05-10T04:18:10;99862.19;;;13.01;100.00
72558;BME280;60583;50.094;8.748;2023-05-10T04:20:35;99865.19;;;13.04;100.00
72558;BME280;60583;50.094;8.748;2023-05-10T04:23:01;99860.84;;;13.10;100.00
72558;BME280;60583;50.094;8.748;2023-05-10T04:25:26;99866.19;;;13.10;100.00
72558;BME280;60583;50.094;8.748;2023-05-10T04:27:51;99830.38;;;12.93;100.00
72558;BME280;60583;50.094;8.748;2023-05-10T04:30:17;99849.38;;;13.03;100.00
72558;BME280;60583;50.094;8.748;2023-05-10T04:32:42;99864.56;;;13.09;100.00
72558;BME280;60583;50.094;8.748;2023-05-10T04:35:08;99859.63;;;13.06;100.00
72558;BME280;60583;50.094;8.748;2023-05-10T04:37:35;99856.75;;;13.07;100.00
72558;BME280;60583;50.094;8.748;2023-05-10T04:40:02;99861.22;;;13.13;100.00
72558;BME280;60583;50.094;8.748;2023-05-10T04:42:28;99864.09;;;13.12;100.00
72558;BME280;60583;50.094;8.748;2023-05-10T04:44:53;99870.66;;;13.27;100.00
72558;BME280;60583;50.094;8.748;2023-05-10T04:47:19;99836.44;;;13.00;100.00
72558;BME280;60583;50.094;8.748;2023-05-10T04:49:45;99874.84;;;13.23;100.00
72558;BME280;60583;50.094;8.748;2023-05-10T04:52:11;99878.63;;;13.34;100.00
72558;BME280;60583;50.094;8.748;2023-05-10T04:54:37;99880.09;;;13.30;100.00
72558;BME280;60583;50.094;8.748;2023-05-10T04:57:02;99875.53;;;13.19;100.00
72558;BME280;60583;50.094;8.748;2023-05-10T04:59:27;99888.13;;;13.30;100.00
72558;BME280;60583;50.094;8.748;2023-05-10T05:01:53;99871.34;;;13.23;100.00
72558;BME280;60583;50.094;8.748;2023-05-10T05:04:18;99881.28;;;13.34;100.00
72558;BME280;60583;50.094;8.748;2023-05-10T05:06:44;99889.47;;;13.39;100.00
72558;BME280;60583;50.094;8.748;2023-05-10T05:09:09;99886.66;;;13.34;100.00
72558;BME280;60583;50.094;8.748;2023-05-10T05:11:36;99883.03;;;13.28;100.00
72558;BME280;60583;50.094;8.748;2023-05-10T05:14:01;99879.06;;;13.31;100.00
72558;BME280;60583;50.094;8.748;2023-05-10T05:16:27;99863.06;;;13.13;100.00
72558;BME280;60583;50.094;8.748;2023-05-10T05:18:52;99897.50;;;13.39;100.00
72558;BME280;60583;50.094;8.748;2023-05-10T05:21:19;99870.19;;;13.19;100.00
72558;BME280;60583;50.094;8.748;2023-05-10T05:23:45;99893.03;;;13.33;100.00
72558;BME280;60583;50.094;8.748;2023-05-10T05:26:10;99899.56;;;13.37;100.00
72558;BME280;60583;50.094;8.748;2023-05-10T05:28:36;99891.88;;;13.29;100.00
72558;BME280;60583;50.094;8.748;2023-05-10T05:31:06;99902.03;;;13.38;100.00
72558;BME280;60583;50.094;8.748;2023-05-10T05:33:33;99901.31;;;13.31;100.00
72558;BME280;60583;50.094;8.748;2023-05-10T05:36:05;99898.41;;;13.33;100.00
72558;BME280;60583;50.094;8.748;2023-05-10T05:38:31;99919.81;;;13.33;100.00
72558;BME280;60583;50.094;8.748;2023-05-10T05:40:56;99911.47;;;13.41;100.00
72558;BME280;60583;50.094;8.748;2023-05-10T05:43:22;99911.59;;;13.46;100.00
72558;BME280;60583;50.094;8.748;2023-05-10T05:45:47;99894.69;;;13.34;100.00
72558;BME280;60583;50.094;8.748;2023-05-10T05:48:13;99907.59;;;13.37;100.00
72558;BME280;60583;50.094;8.748;2023-05-10T05:50:38;99921.25;;;13.47;100.00
72558;BME280;60583;50.094;8.748;2023-05-10T05:53:07;99911.72;;;13.51;100.00
72558;BME280;60583;50.094;8.748;2023-05-10T05:55:33;99908.94;;;13.58;100.00
72558;BME280;60583;50.094;8.748;2023-05-10T05:57:59;99923.03;;;13.53;100.00
72558;BME280;60583;50.094;8.748;2023-05-10T06:00:24;99930.03;;;13.54;100.00
72558;BME280;60583;50.094;8.748;2023-05-10T06:02:51;99919.53;;;13.53;100.00
72558;BME280;60583;50.094;8.748;2023-05-10T06:05:16;99930.28;;;13.64;100.00
72558;BME280;60583;50.094;8.748;2023-05-10T06:07:41;99923.53;;;13.62;100.00
72558;BME280;60583;50.094;8.748;2023-05-10T06:10:08;99910.00;;;13.57;100.00
72558;BME280;60583;50.094;8.748;2023-05-10T06:12:34;99929.47;;;13.75;100.00
72558;BME280;60583;50.094;8.748;2023-05-10T06:14:59;99930.66;;;13.79;100.00
72558;BME280;60583;50.094;8.748;2023-05-10T06:17:24;99937.19;;;13.83;100.00
72558;BME280;60583;50.094;8.748;2023-05-10T06:19:50;99932.16;;;13.75;100.00
72558;BME280;60583;50.094;8.748;2023-05-10T06:22:15;99937.91;;;13.90;100.00
72558;BME280;60583;50.094;8.748;2023-05-10T06:24:41;99929.13;;;13.72;100.00
72558;BME280;60583;50.094;8.748;2023-05-10T06:27:06;99951.41;;;13.95;100.00
72558;BME280;60583;50.094;8.748;2023-05-10T06:29:32;99952.50;;;13.94;100.00
72558;BME280;60583;50.094;8.748;2023-05-10T06:31:58;99942.78;;;13.82;100.00
72558;BME280;60583;50.094;8.748;2023-05-10T06:34:24;99953.88;;;13.97;99.29
72558;BME280;60583;50.094;8.748;2023-05-10T06:36:49;99956.19;;;13.93;99.57
72558;BME280;60583;50.094;8.748;2023-05-10T06:39:14;99962.84;;;14.02;100.00
72558;BME280;60583;50.094;8.748;2023-05-10T06:41:41;99944.19;;;13.84;99.66
72558;BME280;60583;50.094;8.748;2023-05-10T06:44:07;99959.00;;;13.87;99.63
72558;BME280;60583;50.094;8.748;2023-05-10T06:46:32;99953.75;;;13.92;99.94
72558;BME280;60583;50.094;8.748;2023-05-10T06:48:57;99966.13;;;14.04;98.91
72558;BME280;60583;50.094;8.748;2023-05-10T06:51:23;99960.28;;;14.07;98.72
72558;BME280;60583;50.094;8.748;2023-05-10T06:53:48;99969.84;;;14.15;98.24
72558;BME280;60583;50.094;8.748;2023-05-10T06:56:13;99966.38;;;14.15;98.36
72558;BME280;60583;50.094;8.748;2023-05-10T06:58:39;99964.16;;;14.12;98.72
72558;BME280;60583;50.094;8.748;2023-05-10T07:01:05;99956.56;;;13.97;98.29
72558;BME280;60583;50.094;8.748;2023-05-10T07:03:31;99963.78;;;14.08;97.36
72558;BME280;60583;50.094;8.748;2023-05-10T07:06:02;99970.22;;;14.19;97.19
72558;BME280;60583;50.094;8.748;2023-05-10T07:08:32;99973.25;;;14.11;96.47
72558;BME280;60583;50.094;8.748;2023-05-10T07:11:05;99977.44;;;14.18;97.73
72558;BME280;60583;50.094;8.748;2023-05-10T07:13:32;99978.41;;;14.35;97.32
72558;BME280;60583;50.094;8.748;2023-05-10T07:15:59;99977.25;;;14.43;96.83
72558;BME280;60583;50.094;8.748;2023-05-10T07:18:25;99994.28;;;14.48;95.51
72558;BME280;60583;50.094;8.748;2023-05-10T07:20:50;99982.63;;;14.43;95.28
72558;BME280;60583;50.094;8.748;2023-05-10T07:23:16;99971.44;;;14.34;95.17
72558;BME280;60583;50.094;8.748;2023-05-10T07:25:45;99993.34;;;14.43;95.14
72558;BME280;60583;50.094;8.748;2023-05-10T07:28:11;99993.00;;;14.51;95.62
72558;BME280;60583;50.094;8.748;2023-05-10T07:30:36;99990.53;;;14.38;95.14
72558;BME280;60583;50.094;8.748;2023-05-10T07:33:01;100001.88;;;14.40;93.77
72558;BME280;60583;50.094;8.748;2023-05-10T07:35:27;99998.13;;;14.41;95.62
72558;BME280;60583;50.094;8.748;2023-05-10T07:37:52;99972.09;;;14.30;95.46
72558;BME280;60583;50.094;8.748;2023-05-10T07:40:18;99999.19;;;14.51;93.98
72558;BME280;60583;50.094;8.748;2023-05-10T07:42:43;99985.06;;;14.56;94.06
72558;BME280;60583;50.094;8.748;2023-05-10T07:45:09;99988.13;;;14.59;94.16
72558;BME280;60583;50.094;8.748;2023-05-10T07:47:34;99997.91;;;14.54;93.39
72558;BME280;60583;50.094;8.748;2023-05-10T07:50:00;99981.81;;;14.54;93.32
72558;BME280;60583;50.094;8.748;2023-05-10T07:52:25;99999.28;;;14.68;92.43
72558;BME280;60583;50.094;8.748;2023-05-10T07:54:51;100003.97;;;14.73;92.67
72558;BME280;60583;50.094;8.748;2023-05-10T07:57:17;100003.84;;;14.79;92.97
72558;BME280;60583;50.094;8.748;2023-05-10T07:59:43;100008.16;;;14.92;91.58
72558;BME280;60583;50.094;8.748;2023-05-10T08:02:09;100012.56;;;15.09;90.78
72558;BME280;60583;50.094;8.748;2023-05-10T08:04:35;100010.59;;;14.93;89.36
72558;BME280;60583;50.094;8.748;2023-05-10T08:07:00;100000.34;;;14.90;89.54
72558;BME280;60583;50.094;8.748;2023-05-10T08:09:25;100014.97;;;15.11;89.26
72558;BME280;60583;50.094;8.748;2023-05-10T08:11:51;100009.50;;;15.17;89.08
72558;BME280;60583;50.094;8.748;2023-05-10T08:14:16;100010.06;;;15.19;88.87
72558;BME280;60583;50.094;8.748;2023-05-10T08:16:42;100005.75;;;15.18;88.70
72558;BME280;60583;50.094;8.748;2023-05-10T08:19:07;100003.75;;;15.25;88.32
72558;BME280;60583;50.094;8.748;2023-05-10T08:21:33;100014.44;;;15.49;87.17
72558;BME280;60583;50.094;8.748;2023-05-10T08:23:58;100020.91;;;15.64;86.48
72558;BME280;60583;50.094;8.748;2023-05-10T08:26:24;100019.44;;;15.57;86.15
72558;BME280;60583;50.094;8.748;2023-05-10T08:28:49;100018.28;;;15.53;85.17
72558;BME280;60583;50.094;8.748;2023-05-10T08:31:14;100024.63;;;15.75;85.10
72558;BME280;60583;50.094;8.748;2023-05-10T08:33:40;100024.56;;;15.86;85.52
72558;BME280;60583;50.094;8.748;2023-05-10T08:36:06;100015.56;;;15.81;85.32
72558;BME280;60583;50.094;8.748;2023-05-10T08:38:31;100020.84;;;16.04;84.19
72558;BME280;60583;50.094;8.748;2023-05-10T08:40:57;100011.38;;;16.02;83.55
72558;BME280;60583;50.094;8.748;2023-05-10T08:43:26;100013.66;;;16.10;83.13
72558;BME280;60583;50.094;8.748;2023-05-10T08:45:54;100017.34;;;16.20;82.73
72558;BME280;60583;50.094;8.748;2023-05-10T08:48:23;100029.81;;;16.26;84.94
72558;BME280;60583;50.094;8.748;2023-05-10T08:50:50;100023.03;;;16.24;82.88
72558;BME280;60583;50.094;8.748;2023-05-10T08:53:18;100024.44;;;16.26;81.65
72558;BME280;60583;50.094;8.748;2023-05-10T08:55:44;100026.63;;;16.29;81.76
72558;BME280;60583;50.094;8.748;2023-05-10T08:58:10;100026.25;;;16.37;81.26
72558;BME280;60583;50.094;8.748;2023-05-10T09:00:36;100021.09;;;16.19;81.18
72558;BME280;60583;50.094;8.748;2023-05-10T09:03:03;100039.44;;;16.22;81.63
72558;BME280;60583;50.094;8.748;2023-05-10T09:05:29;100043.19;;;16.21;82.25
72558;BME280;60583;50.094;8.748;2023-05-10T09:07:55;100041.81;;;16.35;81.94
72558;BME280;60583;50.094;8.748;2023-05-10T09:10:21;100031.88;;;16.36;80.99
72558;BME280;60583;50.094;8.748;2023-05-10T09:12:48;100044.88;;;16.55;79.33
72558;BME280;60583;50.094;8.748;2023-05-10T09:15:15;100044.25;;;16.37;80.08
72558;BME280;60583;50.094;8.748;2023-05-10T09:17:42;100035.06;;;16.33;79.93
72558;BME280;60583;50.094;8.748;2023-05-10T09:20:08;100051.03;;;16.39;79.04
72558;BME280;60583;50.094;8.748;2023-05-10T09:22:34;100050.78;;;16.24;80.24
72558;BME280;60583;50.094;8.748;2023-05-10T09:25:13;100046.63;;;16.33;80.18
72558;BME280;60583;50.094;8.748;2023-05-10T09:27:40;100044.91;;;16.27;80.75
72558;BME280;60583;50.094;8.748;2023-05-10T09:30:07;100039.88;;;16.31;80.12
72558;BME280;60583;50.094;8.748;2023-05-10T09:32:40;100047.94;;;16.47;80.26
72558;BME280;60583;50.094;8.748;2023-05-10T09:35:10;100058.31;;;16.55;80.96
72558;BME280;60583;50.094;8.748;2023-05-10T09:37:38;100037.41;;;16.46;80.86
72558;BME280;60583;50.094;8.748;2023-05-10T09:40:07;100050.16;;;16.67;80.31
72558;BME280;60583;50.094;8.748;2023-05-10T09:42:33;100050.31;;;16.61;79.98
72558;BME280;60583;50.094;8.748;2023-05-10T09:45:03;100056.75;;;16.59;79.18
72558;BME280;60583;50.094;8.748;2023-05-10T09:47:31;100052.31;;;16.37;79.50
72558;BME280;60583;50.094;8.748;2023-05-10T09:49:57;100060.19;;;16.38;79.35
72558;BME280;60583;50.094;8.748;2023-05-10T09:52:28;100061.22;;;16.21;79.38
72558;BME280;60583;50.094;8.748;2023-05-10T09:54:54;100060.78;;;16.12;79.90
72558;BME280;60583;50.094;8.748;2023-05-10T09:57:21;100071.72;;;16.22;80.78
72558;BME280;60583;50.094;8.748;2023-05-10T09:59:47;100052.63;;;16.07;81.83
72558;BME280;60583;50.094;8.748;2023-05-10T10:02:13;100056.38;;;16.06;83.03
72558;BME280;60583;50.094;8.748;2023-05-10T10:04:39;100070.72;;;16.12;84.37
72558;BME280;60583;50.094;8.748;2023-05-10T10:07:06;100072.47;;;16.18;84.51
72558;BME280;60583;50.094;8.748;2023-05-10T10:09:32;100084.25;;;16.00;84.93
72558;BME280;60583;50.094;8.748;2023-05-10T10:11:59;100065.28;;;15.78;83.94
72558;BME280;60583;50.094;8.748;2023-05-10T10:14:25;100086.31;;;15.81;86.33
72558;BME280;60583;50.094;8.748;2023-05-10T10:16:51;100085.50;;;15.53;88.04
72558;BME280;60583;50.094;8.748;2023-05-10T10:19:18;100089.44;;;15.39;88.53
72558;BME280;60583;50.094;8.748;2023-05-10T10:21:44;100076.28;;;15.25;90.37
72558;BME280;60583;50.094;8.748;2023-05-10T10:24:09;100085.28;;;15.19;91.27
72558;BME280;60583;50.094;8.748;2023-05-10T10:26:35;100088.31;;;15.11;92.06
72558;BME280;60583;50.094;8.748;2023-05-10T10:29:08;100078.63;;;15.22;91.09
72558;BME280;60583;50.094;8.748;2023-05-10T10:31:47;100081.38;;;15.39;91.09
72558;BME280;60583;50.094;8.748;2023-05-10T10:34:29;100061.47;;;15.11;93.05
72558;BME280;60583;50.094;8.748;2023-05-10T10:36:57;100071.38;;;15.22;93.67
72558;BME280;60583;50.094;8.748;2023-05-10T10:39:24;100078.88;;;15.20;94.41
72558;BME280;60583;50.094;8.748;2023-05-10T10:41:54;100089.59;;;15.32;95.67
72558;BME280;60583;50.094;8.748;2023-05-10T10:57:25;100083.28;;;15.26;88.90
72558;BME280;60583;50.094;8.748;2023-05-10T11:02:45;100088.53;;;15.21;89.94
72558;BME280;60583;50.094;8.748;2023-05-10T11:07:59;100092.63;;;15.24;90.34
72558;BME280;60583;50.094;8.748;2023-05-10T11:10:26;100079.66;;;15.32;90.14
72558;BME280;60583;50.094;8.748;2023-05-10T11:13:10;100077.31;;;15.48;89.53
72558;BME280;60583;50.094;8.748;2023-05-10T11:15:38;100097.69;;;15.72;88.55
72558;BME280;60583;50.094;8.748;2023-05-10T11:20:42;100079.81;;;15.94;88.85
72558;BME280;60583;50.094;8.748;2023-05-10T11:23:11;100099.47;;;16.23;86.63
72558;BME280;60583;50.094;8.748;2023-05-10T11:25:45;100100.31;;;16.56;88.71
72558;BME280;60583;50.094;8.748;2023-05-10T11:28:14;100104.00;;;16.84;84.96
72558;BME280;60583;50.094;8.748;2023-05-10T11:30:40;100100.41;;;16.78;85.38
72558;BME280;60583;50.094;8.748;2023-05-10T11:33:07;100104.09;;;16.55;85.28
72558;BME280;60583;50.094;8.748;2023-05-10T11:35:39;100104.19;;;16.32;86.99
72558;BME280;60583;50.094;8.748;2023-05-10T11:38:09;100081.84;;;16.15;86.82
72558;BME280;60583;50.094;8.748;2023-05-10T11:40:35;100090.28;;;16.07;87.03
72558;BME280;60583;50.094;8.748;2023-05-10T11:43:02;100107.66;;;16.16;87.86
72558;BME280;60583;50.094;8.748;2023-05-10T11:45:28;100105.66;;;16.23;87.28
72558;BME280;60583;50.094;8.748;2023-05-10T11:47:55;100106.97;;;16.21;87.74
72558;BME280;60583;50.094;8.748;2023-05-10T11:50:20;100108.34;;;16.23;87.83
72558;BME280;60583;50.094;8.748;2023-05-10T11:52:51;100097.97;;;16.15;87.06
72558;BME280;60583;50.094;8.748;2023-05-10T11:55:16;100114.00;;;16.38;87.81
72558;BME280;60583;50.094;8.748;2023-05-10T11:57:42;100074.81;;;16.14;85.78
72558;BME280;60583;50.094;8.748;2023-05-10T12:00:10;100110.78;;;16.70;84.49
72558;BME280;60583;50.094;8.748;2023-05-10T12:02:36;100111.19;;;16.78;82.30
72558;BME280;60583;50.094;8.748;2023-05-10T12:05:02;100109.81;;;16.76;81.48
72558;BME280;60583;50.094;8.748;2023-05-10T12:07:28;100110.94;;;16.80;81.07
72558;BME280;60583;50.094;8.748;2023-05-10T12:10:10;100113.28;;;16.59;81.45
72558;BME280;60583;50.094;8.748;2023-05-10T12:12:41;100123.31;;;16.64;81.59
72558;BME280;60583;50.094;8.748;2023-05-10T12:15:19;100120.66;;;16.81;81.97
72558;BME280;60583;50.094;8.748;2023-05-10T12:17:46;100102.84;;;16.80;81.13
72558;BME280;60583;50.094;8.748;2023-05-10T12:20:21;100084.06;;;16.85;79.08
72558;BME280;60583;50.094;8.748;2023-05-10T12:22:51;100109.22;;;17.29;77.74
72558;BME280;60583;50.094;8.748;2023-05-10T12:25:21;100110.69;;;17.36;77.76
72558;BME280;60583;50.094;8.748;2023-05-10T12:27:55;100090.03;;;17.25;78.01
72558;BME280;60583;50.094;8.748;2023-05-10T12:30:26;100111.03;;;17.61;75.17
72558;BME280;60583;50.094;8.748;2023-05-10T12:32:52;100109.84;;;17.74;75.07
72558;BME280;60583;50.094;8.748;2023-05-10T12:35:17;100114.47;;;17.78;73.85
72558;BME280;60583;50.094;8.748;2023-05-10T12:37:47;100115.03;;;18.02;72.41
72558;BME280;60583;50.094;8.748;2023-05-10T12:40:13;100102.91;;;18.05;72.10
72558;BME280;60583;50.094;8.748;2023-05-10T12:42:40;100110.78;;;18.11;72.14
72558;BME280;60583;50.094;8.748;2023-05-10T12:45:06;100120.97;;;18.31;71.53
72558;BME280;60583;50.094;8.748;2023-05-10T12:47:32;100113.97;;;18.30;70.85
72558;BME280;60583;50.094;8.748;2023-05-10T12:49:58;100111.56;;;18.60;71.71
72558;BME280;60583;50.094;8.748;2023-05-10T12:52:25;100119.16;;;18.68;71.15
72558;BME280;60583;50.094;8.748;2023-05-10T12:54:51;100123.56;;;18.74;69.79
72558;BME280;60583;50.094;8.748;2023-05-10T12:57:17;100097.88;;;18.72;69.95
72558;BME280;60583;50.094;8.748;2023-05-10T12:59:43;100114.22;;;18.55;67.05
72558;BME280;60583;50.094;8.748;2023-05-10T13:02:09;100115.06;;;18.61;65.39
72558;BME280;60583;50.094;8.748;2023-05-10T13:04:34;100109.44;;;18.67;66.08
72558;BME280;60583;50.094;8.748;2023-05-10T13:06:59;100115.78;;;18.83;67.06
72558;BME280;60583;50.094;8.748;2023-05-10T13:09:26;100107.34;;;18.74;65.15
72558;BME280;60583;50.094;8.748;2023-05-10T13:11:52;100107.34;;;18.74;65.73
72558;BME280;60583;50.094;8.748;2023-05-10T13:14:19;100102.38;;;18.61;67.55
72558;BME280;60583;50.094;8.748;2023-05-10T13:16:46;100110.75;;;18.60;68.45
72558;BME280;60583;50.094;8.748;2023-05-10T13:19:12;100116.81;;;18.45;66.59
72558;BME280;60583;50.094;8.748;2023-05-10T13:21:38;100113.69;;;18.31;65.34
72558;BME280;60583;50.094;8.748;2023-05-10T13:24:03;100112.59;;;18.27;65.87